sensor_id;sensor_type;location;lat;lon;timestamp;pressure;altitude;pressure_sealevel;temperature;humidity
28004;BME280;15330;51.234;6.754;2023-07-31T00:00:11;100604.19;;;16.69;100.00
28004;BME280;15330;51.234;6.754;2023-07-31T00:02:37;100602.13;;;16.71;100.00
28004;BME280;15330;51.234;6.754;2023-07-31T00:05:03;100602.53;;;16.68;100.00
28004;BME280;15330;51.234;6.754;2023-07-31T00:07:28;100594.59;;;16.73;100.00
28004;BME280;15330;51.234;6.754;2023-07-31T00:09:54;100612.50;;;16.68;100.00
28004;BME280;15330;51.234;6.754;2023-07-31T00:12:20;100603.34;;;16.69;100.00
28004;BME280;15330;51.234;6.754;2023-07-31T00:14:45;100607.94;;;16.68;100.00
28004;BME280;15330;51.234;6.754;2023-07-31T00:17:11;100597.09;;;16.75;100.00
28004;BME280;15330;51.234;6.754;2023-07-31T00:19:36;100594.41;;;16.75;100.00
28004;BME280;15330;51.234;6.754;2023-07-31T00:22:02;100604.81;;;16.71;100.00
28004;BME280;15330;51.234;6.754;2023-07-31T00:24:27;100605.63;;;16.72;100.00
28004;BME280;15330;51.234;6.754;2023-07-31T00:26:52;100602.50;;;16.75;100.00
28004;BME280;15330;51.234;6.754;2023-07-31T00:29:18;100611.44;;;16.75;100.00
28004;BME280;15330;51.234;6.754;2023-07-31T00:31:43;100609.38;;;16.71;100.00
28004;BME280;15330;51.234;6.754;2023-07-31T00:34:09;100603.97;;;16.71;100.00
28004;BME280;15330;51.234;6.754;2023-07-31T00:36:34;100598.13;;;16.74;100.00
28004;BME280;15330;51.234;6.754;2023-07-31T00:39:00;100599.59;;;16.76;100.00
28004;BME280;15330;51.234;6.754;2023-07-31T00:41:25;100606.47;;;16.79;100.00
28004;BME280;15330;51.234;6.754;2023-07-31T00:43:50;100598.16;;;16.80;100.00
28004;BME280;15330;51.234;6.754;2023-07-31T00:46:16;100600.84;;;16.74;100.00
28004;BME280;15330;51.234;6.754;2023-07-31T00:48:41;100592.53;;;16.75;100.00
28004;BME280;15330;51.234;6.754;2023-07-31T00:51:07;100606.88;;;16.76;100.00
28004;BME280;15330;51.234;6.754;2023-07-31T00:53:33;100586.09;;;16.76;100.00
28004;BME280;15330;51.234;6.754;2023-07-31T00:55:59;100596.91;;;16.76;100.00
28004;BME280;15330;51.234;6.754;2023-07-31T00:58:24;100592.53;;;16.75;100.00
28004;BME280;15330;51.234;6.754;2023-07-31T01:00:50;100592.31;;;16.83;100.00
28004;BME280;15330;51.234;6.754;2023-07-31T01:03:16;100586.53;;;16.80;100.00
28004;BME280;15330;51.234;6.754;2023-07-31T01:08:33;100579.44;;;16.79;100.00
28004;BME280;15330;51.234;6.754;2023-07-31T01:11:16;100585.06;;;16.77;100.00
28004;BME280;15330;51.234;6.754;2023-07-31T01:13:44;100589.22;;;16.80;100.00
28004;BME280;15330;51.234;6.754;2023-07-31T01:16:09;100583.38;;;16.83;100.00
28004;BME280;15330;51.234;6.754;2023-07-31T01:18:35;100578.22;;;16.81;100.00
28004;BME280;15330;51.234;6.754;2023-07-31T01:26:23;100579.84;;;16.82;100.00
28004;BME280;15330;51.234;6.754;2023-07-31T01:29:09;100573.59;;;16.82;100.00
28004;BME280;15330;51.234;6.754;2023-07-31T01:31:36;100576.53;;;16.80;100.00
28004;BME280;15330;51.234;6.754;2023-07-31T01:34:02;100584.00;;;16.85;100.00
28004;BME280;15330;51.234;6.754;2023-07-31T01:36:29;100588.56;;;16.84;100.00
28004;BME280;15330;51.234;6.754;2023-07-31T01:38:59;100584.22;;;16.83;100.00
28004;BME280;15330;51.234;6.754;2023-07-31T01:41:25;100586.91;;;16.83;100.00
28004;BME280;15330;51.234;6.754;2023-07-31T01:43:50;100579.63;;;16.84;100.00
28004;BME280;15330;51.234;6.754;2023-07-31T01:46:16;100576.09;;;16.83;100.00
28004;BME280;15330;51.234;6.754;2023-07-31T01:48:41;100578.41;;;16.86;100.00
28004;BME280;15330;51.234;6.754;2023-07-31T01:51:06;100572.16;;;16.86;100.00
28004;BME280;15330;51.234;6.754;2023-07-31T01:53:32;100567.41;;;16.81;100.00
28004;BME280;15330;51.234;6.754;2023-07-31T01:55:57;100577.56;;;16.86;100.00
28004;BME280;15330;51.234;6.754;2023-07-31T01:58:23;100574.44;;;16.82;100.00
28004;BME280;15330;51.234;6.754;2023-07-31T02:00:48;100574.66;;;16.87;100.00
28004;BME280;15330;51.234;6.754;2023-07-31T02:03:13;100564.91;;;16.80;100.00
28004;BME280;15330;51.234;6.754;2023-07-31T02:05:46;100552.88;;;16.69;100.00
28004;BME280;15330;51.234;6.754;2023-07-31T02:08:12;100563.22;;;16.85;100.00
28004;BME280;15330;51.234;6.754;2023-07-31T02:10:37;100556.34;;;16.83;100.00
28004;BME280;15330;51.234;6.754;2023-07-31T02:13:02;100553.91;;;16.81;100.00
28004;BME280;15330;51.234;6.754;2023-07-31T02:15:29;100556.59;;;16.81;100.00
28004;BME280;15330;51.234;6.754;2023-07-31T02:17:55;100564.06;;;16.79;100.00
28004;BME280;15330;51.234;6.754;2023-07-31T02:20:20;100554.31;;;16.78;100.00
28004;BME280;15330;51.234;6.754;2023-07-31T02:22:45;100563.63;;;16.82;100.00
28004;BME280;15330;51.234;6.754;2023-07-31T02:25:11;100562.19;;;16.86;100.00
28004;BME280;15330;51.234;6.754;2023-07-31T02:27:36;100558.03;;;16.84;100.00
28004;BME280;15330;51.234;6.754;2023-07-31T02:30:02;100557.00;;;16.85;100.00
28004;BME280;15330;51.234;6.754;2023-07-31T02:32:27;100553.66;;;16.90;100.00
28004;BME280;15330;51.234;6.754;2023-07-31T02:34:53;100556.34;;;16.83;100.00
28004;BME280;15330;51.234;6.754;2023-07-31T02:37:18;100537.88;;;16.86;100.00
28004;BME280;15330;51.234;6.754;2023-07-31T02:39:43;100531.44;;;16.87;100.00
28004;BME280;15330;51.234;6.754;2023-07-31T02:42:09;100534.75;;;16.90;100.00
28004;BME280;15330;51.234;6.754;2023-07-31T02:44:34;100529.56;;;16.88;100.00
28004;BME280;15330;51.234;6.754;2023-07-31T02:46:59;100529.75;;;16.93;100.00
28004;BME280;15330;51.234;6.754;2023-07-31T02:49:25;100530.38;;;16.88;100.00
28004;BME280;15330;51.234;6.754;2023-07-31T02:51:50;100525.59;;;16.97;100.00
28004;BME280;15330;51.234;6.754;2023-07-31T02:54:15;100530.81;;;16.92;100.00
28004;BME280;15330;51.234;6.754;2023-07-31T02:56:41;100526.19;;;16.93;100.00
28004;BME280;15330;51.234;6.754;2023-07-31T02:59:06;100522.25;;;16.95;100.00
28004;BME280;15330;51.234;6.754;2023-07-31T03:01:31;100525.16;;;16.94;100.00
28004;BME280;15330;51.234;6.754;2023-07-31T03:03:57;100525.38;;;16.99;100.00
28004;BME280;15330;51.234;6.754;2023-07-31T03:06:22;100523.09;;;17.02;100.00
28004;BME280;15330;51.234;6.754;2023-07-31T03:08:47;100528.50;;;17.02;100.00
28004;BME280;15330;51.234;6.754;2023-07-31T03:11:13;100515.19;;;17.01;100.00
28004;BME280;15330;51.234;6.754;2023-07-31T03:13:38;100514.34;;;17.00;100.00
28004;BME280;15330;51.234;6.754;2023-07-31T03:16:03;100524.50;;;17.05;100.00
28004;BME280;15330;51.234;6.754;2023-07-31T03:18:29;100519.31;;;17.10;100.00
28004;BME280;15330;51.234;6.754;2023-07-31T03:20:54;100518.91;;;17.06;100.00
28004;BME280;15330;51.234;6.754;2023-07-31T03:23:19;100528.06;;;17.12;100.00
28004;BME280;15330;51.234;6.754;2023-07-31T03:25:58;100528.06;;;17.12;100.00
28004;BME280;15330;51.234;6.754;2023-07-31T03:28:24;100523.69;;;17.11;100.00
28004;BME280;15330;51.234;6.754;2023-07-31T03:30:51;100517.44;;;17.10;100.00
28004;BME280;15330;51.234;6.754;2023-07-31T03:33:16;100525.94;;;17.14;100.00
28004;BME280;15330;51.234;6.754;2023-07-31T03:35:41;100530.31;;;17.15;100.00
28004;BME280;15330;51.234;6.754;2023-07-31T03:38:07;100523.47;;;17.12;100.00
28004;BME280;15330;51.234;6.754;2023-07-31T03:40:32;100519.28;;;17.16;100.00
28004;BME280;15330;51.234;6.754;2023-07-31T03:42:57;100517.63;;;17.15;100.00
28004;BME280;15330;51.234;6.754;2023-07-31T03:45:23;100509.13;;;17.12;100.00
28004;BME280;15330;51.234;6.754;2023-07-31T03:47:48;100512.00;;;17.17;100.00
28004;BME280;15330;51.234;6.754;2023-07-31T03:50:14;100509.50;;;17.15;100.00
28004;BME280;15330;51.234;6.754;2023-07-31T03:52:39;100505.34;;;17.19;100.00
28004;BME280;15330;51.234;6.754;2023-07-31T03:55:05;100501.59;;;17.20;100.00
28004;BME280;15330;51.234;6.754;2023-07-31T03:57:30;100500.56;;;17.15;100.00
28004;BME280;15330;51.234;6.754;2023-07-31T03:59:57;100498.31;;;17.12;100.00
28004;BME280;15330;51.234;6.754;2023-07-31T04:02:23;100495.16;;;17.15;100.00
28004;BME280;15330;51.234;6.754;2023-07-31T04:04:48;100493.75;;;17.12;100.00
28004;BME280;15330;51.234;6.754;2023-07-31T04:07:14;100493.75;;;17.12;100.00
28004;BME280;15330;51.234;6.754;2023-07-31T04:09:39;100486.47;;;17.13;100.00
28004;BME280;15330;51.234;6.754;2023-07-31T04:12:05;100497.50;;;17.11;100.00
28004;BME280;15330;51.234;6.754;2023-07-31T04:14:30;100494.78;;;17.11;100.00
28004;BME280;15330;51.234;6.754;2023-07-31T04:16:55;100484.56;;;17.13;100.00
28004;BME280;15330;51.234;6.754;2023-07-31T04:19:21;100497.03;;;17.14;100.00
28004;BME280;15330;51.234;6.754;2023-07-31T04:21:46;100493.34;;;17.09;100.00
28004;BME280;15330;51.234;6.754;2023-07-31T04:24:11;100486.88;;;17.10;100.00
28004;BME280;15330;51.234;6.754;2023-07-31T04:26:37;100478.56;;;17.11;100.00
28004;BME280;15330;51.234;6.754;2023-07-31T04:29:02;100473.38;;;17.10;100.00
28004;BME280;15330;51.234;6.754;2023-07-31T04:31:27;100472.34;;;17.11;100.00
28004;BME280;15330;51.234;6.754;2023-07-31T04:33:53;100471.28;;;17.12;100.00
28004;BME280;15330;51.234;6.754;2023-07-31T04:36:18;100474.00;;;17.12;100.00
28004;BME280;15330;51.234;6.754;2023-07-31T04:38:43;100472.53;;;17.09;100.00
28004;BME280;15330;51.234;6.754;2023-07-31T04:41:09;100474.81;;;17.12;100.00
28004;BME280;15330;51.234;6.754;2023-07-31T04:43:34;100464.44;;;17.09;100.00
28004;BME280;15330;51.234;6.754;2023-07-31T04:46:00;100469.19;;;17.14;100.00
28004;BME280;15330;51.234;6.754;2023-07-31T04:48:25;100448.00;;;17.11;100.00
28004;BME280;15330;51.234;6.754;2023-07-31T04:50:50;100455.25;;;17.17;100.00
28004;BME280;15330;51.234;6.754;2023-07-31T04:53:16;100458.34;;;17.20;100.00
28004;BME280;15330;51.234;6.754;2023-07-31T04:55:41;100447.34;;;17.15;100.00
28004;BME280;15330;51.234;6.754;2023-07-31T04:58:06;100444.00;;;17.20;100.00
28004;BME280;15330;51.234;6.754;2023-07-31T05:00:32;100434.66;;;17.22;100.00
28004;BME280;15330;51.234;6.754;2023-07-31T05:02:57;100440.66;;;17.24;100.00
28004;BME280;15330;51.234;6.754;2023-07-31T05:05:23;100432.13;;;17.28;100.00
28004;BME280;15330;51.234;6.754;2023-07-31T05:07:48;100445.22;;;17.31;100.00
28004;BME280;15330;51.234;6.754;2023-07-31T05:10:13;100434.19;;;17.25;100.00
28004;BME280;15330;51.234;6.754;2023-07-31T05:12:39;100432.91;;;17.35;100.00
28004;BME280;15330;51.234;6.754;2023-07-31T05:15:05;100429.97;;;17.36;100.00
28004;BME280;15330;51.234;6.754;2023-07-31T05:17:30;100426.66;;;17.34;100.00
28004;BME280;15330;51.234;6.754;2023-07-31T05:19:55;100427.69;;;17.40;100.00
28004;BME280;15330;51.234;6.754;2023-07-31T05:22:21;100418.16;;;17.31;100.00
28004;BME280;15330;51.234;6.754;2023-07-31T05:24:46;100423.31;;;17.39;100.00
28004;BME280;15330;51.234;6.754;2023-07-31T05:27:11;100416.66;;;17.41;100.00
28004;BME280;15330;51.234;6.754;2023-07-31T05:29:40;100412.91;;;17.42;100.00
28004;BME280;15330;51.234;6.754;2023-07-31T05:32:06;100400.84;;;17.38;100.00
28004;BME280;15330;51.234;6.754;2023-07-31T05:34:31;100403.50;;;17.45;100.00
28004;BME280;15330;51.234;6.754;2023-07-31T05:36:57;100405.78;;;17.48;100.00
28004;BME280;15330;51.234;6.754;2023-07-31T05:39:22;100397.88;;;17.46;100.00
28004;BME280;15330;51.234;6.754;2023-07-31T05:41:47;100396.19;;;17.52;100.00
28004;BME280;15330;51.234;6.754;2023-07-31T05:44:13;100389.97;;;17.51;100.00
28004;BME280;15330;51.234;6.754;2023-07-31T05:46:38;100374.16;;;17.48;100.00
28004;BME280;15330;51.234;6.754;2023-07-31T05:49:03;100393.03;;;17.55;100.00
28004;BME280;15330;51.234;6.754;2023-07-31T05:51:29;100396.38;;;17.64;100.00
28004;BME280;15330;51.234;6.754;2023-07-31T05:53:54;100392.38;;;17.66;100.00
28004;BME280;15330;51.234;6.754;2023-07-31T05:56:20;100391.31;;;17.67;100.00
28004;BME280;15330;51.234;6.754;2023-07-31T05:58:45;100385.72;;;17.62;100.00
28004;BME280;15330;51.234;6.754;2023-07-31T06:01:10;100387.59;;;17.61;100.00
28004;BME280;15330;51.234;6.754;2023-07-31T06:03:36;100380.97;;;17.57;100.00
28004;BME280;15330;51.234;6.754;2023-07-31T06:06:01;100391.56;;;17.59;100.00
28004;BME280;15330;51.234;6.754;2023-07-31T06:08:26;100386.84;;;17.48;100.00
28004;BME280;15330;51.234;6.754;2023-07-31T06:10:52;100395.81;;;17.48;100.00
28004;BME280;15330;51.234;6.754;2023-07-31T06:13:17;100386.69;;;17.43;100.00
28004;BME280;15330;51.234;6.754;2023-07-31T06:15:43;100388.81;;;17.34;100.00
28004;BME280;15330;51.234;6.754;2023-07-31T06:18:08;100385.31;;;17.27;100.00
28004;BME280;15330;51.234;6.754;2023-07-31T06:20:34;100383.25;;;17.29;100.00
28004;BME280;15330;51.234;6.754;2023-07-31T06:23:00;100372.06;;;17.19;100.00
28004;BME280;15330;51.234;6.754;2023-07-31T06:25:25;100390.56;;;17.22;100.00
28004;BME280;15330;51.234;6.754;2023-07-31T06:27:51;100382.06;;;17.18;100.00
28004;BME280;15330;51.234;6.754;2023-07-31T06:30:16;100379.34;;;17.18;100.00
28004;BME280;15330;51.234;6.754;2023-07-31T06:32:42;100378.72;;;17.16;100.00
28004;BME280;15330;51.234;6.754;2023-07-31T06:35:08;100387.66;;;17.17;100.00
28004;BME280;15330;51.234;6.754;2023-07-31T06:37:33;100391.03;;;17.12;100.00
28004;BME280;15330;51.234;6.754;2023-07-31T06:39:58;100395.63;;;17.05;100.00
28004;BME280;15330;51.234;6.754;2023-07-31T06:42:24;100385.63;;;17.12;100.00
28004;BME280;15330;51.234;6.754;2023-07-31T06:44:49;100384.97;;;17.17;100.00
28004;BME280;15330;51.234;6.754;2023-07-31T06:47:15;100391.63;;;17.14;100.00
28004;BME280;15330;51.234;6.754;2023-07-31T06:49:40;100388.28;;;17.19;100.00
28004;BME280;15330;51.234;6.754;2023-07-31T06:52:06;100390.38;;;17.17;100.00
28004;BME280;15330;51.234;6.754;2023-07-31T06:54:31;100378.72;;;17.16;100.00
28004;BME280;15330;51.234;6.754;2023-07-31T06:56:57;100388.72;;;17.16;100.00
28004;BME280;15330;51.234;6.754;2023-07-31T06:59:22;100390.41;;;17.10;100.00
28004;BME280;15330;51.234;6.754;2023-07-31T07:01:47;100399.78;;;17.08;100.00
28004;BME280;15330;51.234;6.754;2023-07-31T07:04:14;100381.28;;;17.11;100.00
28004;BME280;15330;51.234;6.754;2023-07-31T07:06:39;100389.75;;;17.15;100.00
28004;BME280;15330;51.234;6.754;2023-07-31T07:09:05;100392.91;;;17.12;100.00
28004;BME280;15330;51.234;6.754;2023-07-31T07:11:31;100388.09;;;17.14;100.00
28004;BME280;15330;51.234;6.754;2023-07-31T07:13:56;100377.34;;;17.07;100.00
28004;BME280;15330;51.234;6.754;2023-07-31T07:16:21;100377.38;;;17.01;100.00
28004;BME280;15330;51.234;6.754;2023-07-31T07:18:47;100366.38;;;16.96;100.00
28004;BME280;15330;51.234;6.754;2023-07-31T07:21:12;100365.94;;;16.99;100.00
28004;BME280;15330;51.234;6.754;2023-07-31T07:23:41;100370.09;;;17.01;100.00
28004;BME280;15330;51.234;6.754;2023-07-31T07:26:07;100379.25;;;17.00;100.00
28004;BME280;15330;51.234;6.754;2023-07-31T07:28:32;100378.00;;;16.96;100.00
28004;BME280;15330;51.234;6.754;2023-07-31T07:30:57;100367.00;;;16.98;100.00
28004;BME280;15330;51.234;6.754;2023-07-31T07:33:23;100372.59;;;16.96;100.00
28004;BME280;15330;51.234;6.754;2023-07-31T07:35:48;100374.06;;;16.99;100.00
28004;BME280;15330;51.234;6.754;2023-07-31T07:38:14;100366.78;;;16.99;100.00
28004;BME280;15330;51.234;6.754;2023-07-31T07:40:40;100366.59;;;16.94;100.00
28004;BME280;15330;51.234;6.754;2023-07-31T07:43:06;100368.88;;;16.97;100.00
28004;BME280;15330;51.234;6.754;2023-07-31T07:45:31;100372.00;;;16.94;100.00
28004;BME280;15330;51.234;6.754;2023-07-31T07:47:57;100373.84;;;16.94;100.00
28004;BME280;15330;51.234;6.754;2023-07-31T07:50:23;100365.78;;;16.87;100.00
28004;BME280;15330;51.234;6.754;2023-07-31T07:52:48;100374.91;;;16.93;100.00
28004;BME280;15330;51.234;6.754;2023-07-31T07:55:13;100371.63;;;16.84;100.00
28004;BME280;15330;51.234;6.754;2023-07-31T07:57:39;100368.72;;;16.85;100.00
28004;BME280;15330;51.234;6.754;2023-07-31T08:00:05;100367.88;;;16.85;100.00
28004;BME280;15330;51.234;6.754;2023-07-31T08:02:31;100358.94;;;16.84;100.00
28004;BME280;15330;51.234;6.754;2023-07-31T08:04:56;100366.38;;;16.96;100.00
28004;BME280;15330;51.234;6.754;2023-07-31T08:07:21;100354.13;;;16.93;100.00
28004;BME280;15330;51.234;6.754;2023-07-31T08:09:47;100345.84;;;16.88;100.00
28004;BME280;15330;51.234;6.754;2023-07-31T08:12:12;100358.94;;;16.91;100.00
28004;BME280;15330;51.234;6.754;2023-07-31T08:14:38;100350.16;;;16.96;100.00
28004;BME280;15330;51.234;6.754;2023-07-31T08:17:03;100358.47;;;17.01;100.00
28004;BME280;15330;51.234;6.754;2023-07-31T08:19:29;100336.91;;;16.87;100.00
28004;BME280;15330;51.234;6.754;2023-07-31T08:21:54;100334.63;;;16.84;100.00
28004;BME280;15330;51.234;6.754;2023-07-31T08:24:20;100338.38;;;16.83;100.00
28004;BME280;15330;51.234;6.754;2023-07-31T08:26:45;100330.63;;;16.94;100.00
28004;BME280;15330;51.234;6.754;2023-07-31T08:29:11;100328.81;;;16.87;100.00
28004;BME280;15330;51.234;6.754;2023-07-31T08:31:37;100324.22;;;16.88;100.00
28004;BME280;15330;51.234;6.754;2023-07-31T08:34:03;100321.75;;;16.86;100.00
28004;BME280;15330;51.234;6.754;2023-07-31T08:36:28;100332.91;;;16.97;100.00
28004;BME280;15330;51.234;6.754;2023-07-31T08:38:53;100335.19;;;17.00;100.00
28004;BME280;15330;51.234;6.754;2023-07-31T08:41:20;100339.13;;;16.97;100.00
28004;BME280;15330;51.234;6.754;2023-07-31T08:43:46;100338.59;;;16.82;100.00
28004;BME280;15330;51.234;6.754;2023-07-31T08:46:11;100321.53;;;16.88;100.00
28004;BME280;15330;51.234;6.754;2023-07-31T08:48:37;100324.22;;;16.88;100.00
28004;BME280;15330;51.234;6.754;2023-07-31T08:51:04;100330.94;;;16.79;100.00
28004;BME280;15330;51.234;6.754;2023-07-31T08:53:29;100328.91;;;16.68;100.00
28004;BME280;15330;51.234;6.754;2023-07-31T08:55:56;100333.06;;;16.70;100.00
28004;BME280;15330;51.234;6.754;2023-07-31T08:58:23;100321.84;;;16.67;100.00
28004;BME280;15330;51.234;6.754;2023-07-31T09:00:50;100339.09;;;16.66;100.00
28004;BME280;15330;51.234;6.754;2023-07-31T09:03:18;100340.91;;;16.72;100.00
28004;BME280;15330;51.234;6.754;2023-07-31T09:05:46;100340.13;;;16.71;100.00
28004;BME280;15330;51.234;6.754;2023-07-31T09:08:14;100339.47;;;16.76;100.00
28004;BME280;15330;51.234;6.754;2023-07-31T09:10:44;100342.94;;;16.90;100.00
28004;BME280;15330;51.234;6.754;2023-07-31T09:13:13;100335.31;;;16.73;100.00
28004;BME280;15330;51.234;6.754;2023-07-31T09:15:40;100338.00;;;16.80;100.00
28004;BME280;15330;51.234;6.754;2023-07-31T09:18:08;100330.94;;;16.79;100.00
28004;BME280;15330;51.234;6.754;2023-07-31T09:20:33;100331.09;;;16.84;100.00
28004;BME280;15330;51.234;6.754;2023-07-31T09:23:12;100323.25;;;16.76;100.00
28004;BME280;15330;51.234;6.754;2023-07-31T09:25:39;100326.53;;;16.84;100.00
28004;BME280;15330;51.234;6.754;2023-07-31T09:28:07;100330.47;;;16.82;100.00
28004;BME280;15330;51.234;6.754;2023-07-31T09:30:48;100324.66;;;16.85;100.00
28004;BME280;15330;51.234;6.754;2023-07-31T09:33:14;100331.28;;;16.89;100.00
28004;BME280;15330;51.234;6.754;2023-07-31T09:35:40;100330.06;;;16.85;100.00
28004;BME280;15330;51.234;6.754;2023-07-31T09:38:13;100325.69;;;16.84;100.00
28004;BME280;15330;51.234;6.754;2023-07-31T09:40:40;100312.16;;;16.91;100.00
28004;BME280;15330;51.234;6.754;2023-07-31T09:43:07;100325.53;;;16.79;100.00
28004;BME280;15330;51.234;6.754;2023-07-31T09:45:38;100311.56;;;16.82;100.00
28004;BME280;15330;51.234;6.754;2023-07-31T09:48:08;100313.91;;;16.78;100.00
28004;BME280;15330;51.234;6.754;2023-07-31T09:50:36;100313.22;;;16.90;100.00
28004;BME280;15330;51.234;6.754;2023-07-31T09:53:03;100309.69;;;16.89;100.00
28004;BME280;15330;51.234;6.754;2023-07-31T09:55:29;100308.44;;;16.85;100.00
28004;BME280;15330;51.234;6.754;2023-07-31T09:57:56;100295.75;;;16.92;100.00
28004;BME280;15330;51.234;6.754;2023-07-31T10:00:23;100307.34;;;16.93;100.00
28004;BME280;15330;51.234;6.754;2023-07-31T10:02:50;100305.88;;;16.97;100.00
28004;BME280;15330;51.234;6.754;2023-07-31T10:05:16;100307.59;;;16.91;100.00
28004;BME280;15330;51.234;6.754;2023-07-31T10:07:51;100299.91;;;16.88;100.00
28004;BME280;15330;51.234;6.754;2023-07-31T10:10:17;100309.47;;;16.91;100.00
28004;BME280;15330;51.234;6.754;2023-07-31T10:12:45;100313.22;;;16.90;100.00
28004;BME280;15330;51.234;6.754;2023-07-31T10:15:11;100300.91;;;16.94;100.00
28004;BME280;15330;51.234;6.754;2023-07-31T10:17:38;100299.03;;;16.94;100.00
28004;BME280;15330;51.234;6.754;2023-07-31T10:20:04;100302.19;;;16.91;100.00
28004;BME280;15330;51.234;6.754;2023-07-31T10:22:31;100305.00;;;17.03;100.00
28004;BME280;15330;51.234;6.754;2023-07-31T10:24:58;100307.72;;;17.03;100.00
28004;BME280;15330;51.234;6.754;2023-07-31T10:27:24;100300.63;;;17.08;100.00
28004;BME280;15330;51.234;6.754;2023-07-31T10:29:50;100303.28;;;17.15;100.00
28004;BME280;15330;51.234;6.754;2023-07-31T10:32:18;100303.63;;;17.25;100.00
28004;BME280;15330;51.234;6.754;2023-07-31T10:34:44;100301.09;;;17.30;100.00
28004;BME280;15330;51.234;6.754;2023-07-31T10:37:28;100298.72;;;17.40;100.00
28004;BME280;15330;51.234;6.754;2023-07-31T10:42:33;100301.22;;;17.67;100.00
28004;BME280;15330;51.234;6.754;2023-07-31T10:45:01;100296.44;;;17.69;100.00
28004;BME280;15330;51.234;6.754;2023-07-31T10:47:27;100292.84;;;17.75;100.00
28004;BME280;15330;51.234;6.754;2023-07-31T10:49:53;100292.84;;;17.75;100.00
28004;BME280;15330;51.234;6.754;2023-07-31T10:52:35;100288.84;;;17.77;100.00
28004;BME280;15330;51.234;6.754;2023-07-31T10:55:24;100290.28;;;17.80;100.00
28004;BME280;15330;51.234;6.754;2023-07-31T10:57:50;100302.56;;;17.82;100.00
28004;BME280;15330;51.234;6.754;2023-07-31T11:02:59;100289.25;;;17.81;100.00
28004;BME280;15330;51.234;6.754;2023-07-31T11:08:22;100287.44;;;17.75;100.00
28004;BME280;15330;51.234;6.754;2023-07-31T11:10:51;100284.06;;;17.79;100.00
28004;BME280;15330;51.234;6.754;2023-07-31T11:16:05;100287.38;;;17.81;100.00
28004;BME280;15330;51.234;6.754;2023-07-31T11:18:31;100293.59;;;17.82;100.00
28004;BME280;15330;51.234;6.754;2023-07-31T11:20:56;100289.56;;;17.91;100.00
28004;BME280;15330;51.234;6.754;2023-07-31T11:23:22;100294.16;;;18.09;100.00
28004;BME280;15330;51.234;6.754;2023-07-31T11:25:48;100306.50;;;18.23;100.00
28004;BME280;15330;51.234;6.754;2023-07-31T11:28:15;100287.16;;;18.19;100.00
28004;BME280;15330;51.234;6.754;2023-07-31T11:30:42;100287.03;;;18.14;100.00
28004;BME280;15330;51.234;6.754;2023-07-31T11:33:11;100284.69;;;18.18;100.00
28004;BME280;15330;51.234;6.754;2023-07-31T11:35:47;100278.53;;;18.11;100.00
28004;BME280;15330;51.234;6.754;2023-07-31T11:38:30;100270.69;;;18.21;100.00
28004;BME280;15330;51.234;6.754;2023-07-31T11:40:58;100259.41;;;18.24;100.00
28004;BME280;15330;51.234;6.754;2023-07-31T11:43:24;100269.81;;;18.27;100.00
28004;BME280;15330;51.234;6.754;2023-07-31T11:45:55;100272.34;;;18.22;100.00
28004;BME280;15330;51.234;6.754;2023-07-31T11:48:28;100265.19;;;18.27;100.00
28004;BME280;15330;51.234;6.754;2023-07-31T11:50:57;100265.81;;;18.29;100.00
28004;BME280;15330;51.234;6.754;2023-07-31T11:53:31;100264.97;;;18.29;100.00
28004;BME280;15330;51.234;6.754;2023-07-31T11:55:59;100264.13;;;18.28;100.00
28004;BME280;15330;51.234;6.754;2023-07-31T11:58:26;100258.72;;;18.28;100.00
28004;BME280;15330;51.234;6.754;2023-07-31T12:00:53;100257.63;;;18.36;100.00
28004;BME280;15330;51.234;6.754;2023-07-31T12:03:19;100270.78;;;18.32;100.00
28004;BME280;15330;51.234;6.754;2023-07-31T12:05:47;100265.81;;;18.29;100.00
28004;BME280;15330;51.234;6.754;2023-07-31T12:08:12;100259.34;;;18.30;100.00
28004;BME280;15330;51.234;6.754;2023-07-31T12:10:38;100261.59;;;18.33;100.00
28004;BME280;15330;51.234;6.754;2023-07-31T12:13:11;100261.22;;;18.30;100.00
28004;BME280;15330;51.234;6.754;2023-07-31T12:15:42;100258.50;;;18.30;100.00
28004;BME280;15330;51.234;6.754;2023-07-31T12:18:14;100258.88;;;18.33;100.00
28004;BME280;15330;51.234;6.754;2023-07-31T12:20:45;100254.38;;;18.27;100.00
28004;BME280;15330;51.234;6.754;2023-07-31T12:23:18;100259.34;;;18.30;100.00
28004;BME280;15330;51.234;6.754;2023-07-31T12:25:44;100252.03;;;18.31;100.00
28004;BME280;15330;51.234;6.754;2023-07-31T12:28:10;100261.38;;;18.35;100.00
28004;BME280;15330;51.234;6.754;2023-07-31T12:30:40;100257.06;;;18.46;100.00
28004;BME280;15330;51.234;6.754;2023-07-31T12:33:11;100242.03;;;18.31;100.00
28004;BME280;15330;51.234;6.754;2023-07-31T12:35:38;100257.47;;;18.13;100.00
28004;BME280;15330;51.234;6.754;2023-07-31T12:38:05;100250.84;;;18.09;100.00
28004;BME280;15330;51.234;6.754;2023-07-31T12:40:31;100254.38;;;18.09;100.00
28004;BME280;15330;51.234;6.754;2023-07-31T12:42:57;100253.31;;;18.10;100.00
28004;BME280;15330;51.234;6.754;2023-07-31T12:45:23;100247.38;;;18.20;100.00
28004;BME280;15330;51.234;6.754;2023-07-31T12:47:48;100261.41;;;18.17;100.00
28004;BME280;15330;51.234;6.754;2023-07-31T12:50:14;100245.38;;;18.15;100.00
28004;BME280;15330;51.234;6.754;2023-07-31T12:52:39;100241.13;;;18.19;100.00
28004;BME280;15330;51.234;6.754;2023-07-31T12:55:05;100225.41;;;18.28;100.00